Time;durP1;ratioP1;P1;durP2;ratioP2;P2;SDS_P1;SDS_P2;PMS_P1;PMS_P2;Temp;Humidity;BMP_temperature;BMP_pressure;BME280_temperature;BME280_humidity;BME280_pressure;Samples;Min_cycle;Max_cycle;Signal;HPM_P1;HPM_P2
2022/01/10 00:04:47;;;;;;;;;;;;;;;0.27;93.07422;101137.8;;;;-82
2022/01/10 00:05:16;;;;;;;9.3;3.2;;;;;;;;;;;;;-81
2022/01/10 00:09:48;;;;;;;;;;;;;;;0.34;93.19727;101137.2;;;;-82
2022/01/10 00:14:47;;;;;;;;;;;;;;;0.39;93.19824;101145.2;;;;-82
2022/01/10 00:19:47;;;;;;;;;;;;;;;0.42;93.15039;101149.8;;;;-86
2022/01/10 00:24:47;;;;;;;;;;;;;;;0.45;93.13477;101143.2;;;;-85
2022/01/10 00:29:47;;;;;;;;;;;;;;;0.48;93.19727;101150.1;;;;-85
2022/01/10 00:34:48;;;;;;;;;;;;;;;0.48;93.22949;101164;;;;-84
2022/01/10 00:35:15;;;;;;;8.1;3.3;;;;;;;;;;;;;-84
2022/01/10 00:39:48;;;;;;;;;;;;;;;0.5;93.25293;101176.2;;;;-84
2022/01/10 00:44:53;;;;;;;;;;;;;;;0.51;93.26563;101187.4;;;;-85
2022/01/10 00:49:48;;;;;;;;;;;;;;;0.51;93.22461;101186.5;;;;-84
2022/01/10 00:54:48;;;;;;;;;;;;;;;0.51;93.16016;101189.5;;;;-84
2022/01/10 00:59:48;;;;;;;;;;;;;;;0.51;93.16992;101199;;;;-84
2022/01/10 01:04:51;;;;;;;;;;;;;;;0.47;93.07422;101212.3;;;;-85
2022/01/10 01:05:17;;;;;;;8;3;;;;;;;;;;;;;-85
2022/01/10 01:09:58;;;;;;;;;;;;;;;0.43;93.06641;101224.4;;;;-85
2022/01/10 01:15:07;;;;;;;;;;;;;;;0.38;93.01172;101230.5;;;;-85
2022/01/10 01:20:07;;;;;;;;;;;;;;;0.31;92.97656;101227.8;;;;-84
2022/01/10 01:24:48;;;;;;;;;;;;;;;0.25;92.97266;101238.8;;;;-85
2022/01/10 01:29:48;;;;;;;;;;;;;;;0.18;92.94824;101242.1;;;;-85
2022/01/10 01:34:47;;;;;;;;;;;;;;;0.14;92.94922;101245.9;;;;-86
2022/01/10 01:35:13;;;;;;;10.3;2.9;;;;;;;;;;;;;-85
2022/01/10 01:39:47;;;;;;;;;;;;;;;0.09;92.88574;101258.9;;;;-84
2022/01/10 01:44:51;;;;;;;;;;;;;;;0.05;92.89941;101268.1;;;;-84
2022/01/10 01:49:47;;;;;;;;;;;;;;;0.03;92.88477;101277.9;;;;-83
2022/01/10 01:54:47;;;;;;;;;;;;;;;0.03;92.81836;101283.2;;;;-82
2022/01/10 01:59:47;;;;;;;;;;;;;;;-0.01;92.72461;101288.3;;;;-84
2022/01/10 02:04:47;;;;;;;;;;;;;;;-0.03;92.68555;101312.8;;;;-82
2022/01/10 02:05:12;;;;;;;7.4;3;;;;;;;;;;;;;-82
2022/01/10 02:09:47;;;;;;;;;;;;;;;-0.02;92.68848;101328.7;;;;-82
2022/01/10 02:14:50;;;;;;;;;;;;;;;0.01;92.68555;101334.6;;;;-82
2022/01/10 02:19:48;;;;;;;;;;;;;;;0.04;92.71289;101343.6;;;;-82
2022/01/10 02:24:49;;;;;;;;;;;;;;;0.11;92.74805;101340.2;;;;-85
2022/01/10 02:29:48;;;;;;;;;;;;;;;0.16;92.81348;101344.5;;;;-84
2022/01/10 02:34:48;;;;;;;;;;;;;;;0.22;92.92188;101356.2;;;;-85
2022/01/10 02:35:20;;;;;;;9.6;3.3;;;;;;;;;;;;;-85
2022/01/10 02:39:48;;;;;;;;;;;;;;;0.26;92.96582;101360.6;;;;-84
2022/01/10 02:44:49;;;;;;;;;;;;;;;0.32;93.04102;101375.7;;;;-84
2022/01/10 02:49:48;;;;;;;;;;;;;;;0.34;93.03613;101381.7;;;;-85
2022/01/10 02:54:49;;;;;;;;;;;;;;;0.38;93.00098;101375;;;;-84
2022/01/10 02:59:48;;;;;;;;;;;;;;;0.42;93.01953;101395.6;;;;-87
2022/01/10 03:04:49;;;;;;;;;;;;;;;0.44;92.98242;101397.6;;;;-85
2022/01/10 03:05:10;;;;;;;11.1;3.9;;;;;;;;;;;;;-86
2022/01/10 03:09:49;;;;;;;;;;;;;;;0.5;93.02637;101392.4;;;;-84
2022/01/10 03:14:48;;;;;;;;;;;;;;;0.53;93.02539;101409;;;;-84
2022/01/10 03:19:47;;;;;;;;;;;;;;;0.58;93.03516;101427.1;;;;-83
2022/01/10 03:24:50;;;;;;;;;;;;;;;0.6;93.00488;101440.8;;;;-85
2022/01/10 03:29:47;;;;;;;;;;;;;;;0.63;93.03418;101439.2;;;;-85
2022/01/10 03:34:48;;;;;;;;;;;;;;;0.66;93.04004;101452.1;;;;-85
2022/01/10 03:35:09;;;;;;;8.7;3.4;;;;;;;;;;;;;-85
2022/01/10 03:39:48;;;;;;;;;;;;;;;0.68;93.03613;101456.3;;;;-84
2022/01/10 03:44:47;;;;;;;;;;;;;;;0.7;93.02734;101463.7;;;;-85
2022/01/10 03:49:53;;;;;;;;;;;;;;;0.72;93.03125;101469.4;;;;-85
2022/01/10 03:54:48;;;;;;;;;;;;;;;0.74;93.16602;101470.2;;;;-85
2022/01/10 03:59:47;;;;;;;;;;;;;;;0.78;93.23828;101475;;;;-85
2022/01/10 04:04:49;;;;;;;;;;;;;;;0.77;93.19531;101482.7;;;;-84
2022/01/10 04:05:09;;;;;;;8.1;2.9;;;;;;;;;;;;;-85
2022/01/10 04:09:47;;;;;;;;;;;;;;;0.79;93.21875;101490.8;;;;-84
2022/01/10 04:14:48;;;;;;;;;;;;;;;0.8;93.24219;101505.4;;;;-85
2022/01/10 04:19:48;;;;;;;;;;;;;;;0.8;93.18848;101529.6;;;;-84
2022/01/10 04:24:48;;;;;;;;;;;;;;;0.8;93.17969;101530.7;;;;-84
2022/01/10 04:29:48;;;;;;;;;;;;;;;0.81;93.14941;101538.8;;;;-84
2022/01/10 04:34:51;;;;;;;;;;;;;;;0.81;93.10645;101550.3;;;;-85
2022/01/10 04:35:08;;;;;;;9.5;3.2;;;;;;;;;;;;;-84
2022/01/10 04:39:48;;;;;;;;;;;;;;;0.83;93.16406;101560.8;;;;-85
2022/01/10 04:44:49;;;;;;;;;;;;;;;0.84;93.20898;101569;;;;-85
2022/01/10 04:50:04;;;;;;;;;;;;;;;0.84;93.17676;101584.9;;;;-84
2022/01/10 04:54:47;;;;;;;;;;;;;;;0.84;93.13379;101583.1;;;;-85
2022/01/10 04:59:48;;;;;;;;;;;;;;;0.85;93.11426;101603;;;;-86
2022/01/10 05:04:48;;;;;;;;;;;;;;;0.86;93.1377;101616.9;;;;-84
2022/01/10 05:05:07;;;;;;;6.9;3;;;;;;;;;;;;;-84
2022/01/10 05:09:53;;;;;;;;;;;;;;;0.83;93.14258;101620.9;;;;-84
2022/01/10 05:14:48;;;;;;;;;;;;;;;0.83;93.1748;101625.1;;;;-85
2022/01/10 05:19:47;;;;;;;;;;;;;;;0.83;93.18359;101640.7;;;;-85
2022/01/10 05:24:49;;;;;;;;;;;;;;;0.81;93.19238;101651.1;;;;-85
2022/01/10 05:29:53;;;;;;;;;;;;;;;0.78;93.17578;101665.2;;;;-85
2022/01/10 05:34:48;;;;;;;;;;;;;;;0.76;93.17188;101664.8;;;;-84
2022/01/10 05:35:06;;;;;;;7.4;3.1;;;;;;;;;;;;;-83
2022/01/10 05:39:47;;;;;;;;;;;;;;;0.72;93.17285;101669;;;;-85
2022/01/10 05:44:48;;;;;;;;;;;;;;;0.66;93.17188;101675.9;;;;-85
2022/01/10 05:49:49;;;;;;;;;;;;;;;0.61;93.16016;101681.4;;;;-85
2022/01/10 05:54:53;;;;;;;;;;;;;;;0.53;93.10938;101684;;;;-85
2022/01/10 05:59:49;;;;;;;;;;;;;;;0.48;93.11914;101690.4;;;;-85
2022/01/10 06:04:48;;;;;;;;;;;;;;;0.43;93.07715;101706.4;;;;-85
2022/01/10 06:05:09;;;;;;;7.8;3;;;;;;;;;;;;;-85
2022/01/10 06:09:49;;;;;;;;;;;;;;;0.36;93.05078;101725.9;;;;-85
2022/01/10 06:14:48;;;;;;;;;;;;;;;0.3;92.99609;101739.3;;;;-85
2022/01/10 06:19:47;;;;;;;;;;;;;;;0.23;92.96875;101753.4;;;;-85
2022/01/10 06:24:49;;;;;;;;;;;;;;;0.16;92.95313;101764.2;;;;-85
2022/01/10 06:29:54;;;;;;;;;;;;;;;0.11;92.93262;101776.7;;;;-86
2022/01/10 06:34:48;;;;;;;;;;;;;;;0.05;92.87793;101783.4;;;;-84
2022/01/10 06:35:04;;;;;;;6.6;2.9;;;;;;;;;;;;;-86
2022/01/10 06:39:47;;;;;;;;;;;;;;;-0.02;92.83008;101796.3;;;;-83
2022/01/10 06:44:47;;;;;;;;;;;;;;;-0.09;92.75977;101803.2;;;;-81
2022/01/10 06:49:48;;;;;;;;;;;;;;;-0.14;92.72852;101816.4;;;;-83
2022/01/10 06:54:47;;;;;;;;;;;;;;;-0.2;92.67188;101827.2;;;;-82
2022/01/10 06:59:47;;;;;;;;;;;;;;;-0.25;92.64941;101834.8;;;;-85
2022/01/10 07:04:48;;;;;;;;;;;;;;;-0.29;92.65234;101847.2;;;;-85
2022/01/10 07:05:03;;;;;;;7;2.9;;;;;;;;;;;;;-85
2022/01/10 07:09:47;;;;;;;;;;;;;;;-0.33;92.62305;101865.1;;;;-86
2022/01/10 07:14:54;;;;;;;;;;;;;;;-0.35;92.58496;101876.9;;;;-88
2022/01/10 07:19:53;;;;;;;;;;;;;;;-0.38;92.58984;101882.1;;;;-86
2022/01/10 07:24:48;;;;;;;;;;;;;;;-0.44;92.58887;101890.3;;;;-84
2022/01/10 07:29:50;;;;;;;;;;;;;;;-0.45;92.58398;101894.6;;;;-86
2022/01/10 07:34:48;;;;;;;;;;;;;;;-0.5;92.53027;101899.9;;;;-86
2022/01/10 07:35:01;;;;;;;5.8;2.6;;;;;;;;;;;;;-85
2022/01/10 07:39:48;;;;;;;;;;;;;;;-0.53;92.52344;101916.8;;;;-85
2022/01/10 07:44:52;;;;;;;;;;;;;;;-0.54;92.55371;101933;;;;-87
2022/01/10 07:49:52;;;;;;;;;;;;;;;-0.54;92.50195;101947.1;;;;-86
2022/01/10 07:54:50;;;;;;;;;;;;;;;-0.51;92.57227;101958.6;;;;-87
2022/01/10 07:59:49;;;;;;;;;;;;;;;-0.43;92.61035;101964.7;;;;-86
2022/01/10 08:04:47;;;;;;;;;;;;;;;-0.35;92.71387;101969.9;;;;-87
2022/01/10 08:05:00;;;;;;;6.3;3.1;;;;;;;;;;;;;-86
2022/01/10 08:09:57;;;;;;;;;;;;;;;-0.25;92.74414;101973.7;;;;-86
2022/01/10 08:14:53;;;;;;;;;;;;;;;-0.16;92.81934;101988.4;;;;-86
2022/01/10 08:19:47;;;;;;;;;;;;;;;-0.05;92.88867;102001.2;;;;-86
2022/01/10 08:24:50;;;;;;;;;;;;;;;0.07;92.9873;102019;;;;-87
2022/01/10 08:29:53;;;;;;;;;;;;;;;0.17;92.97656;102039.2;;;;-86
2022/01/10 08:34:48;;;;;;;;;;;;;;;0.26;92.9873;102042.7;;;;-85
2022/01/10 08:35:00;;;;;;;10.2;4.1;;;;;;;;;;;;;-85
2022/01/10 08:39:51;;;;;;;;;;;;;;;0.36;93.03125;102045.7;;;;-85
2022/01/10 08:44:49;;;;;;;;;;;;;;;0.47;93.08496;102046.5;;;;-85
2022/01/10 08:49:47;;;;;;;;;;;;;;;0.58;93.19727;102048.3;;;;-85
2022/01/10 08:54:49;;;;;;;;;;;;;;;0.67;93.11816;102052.1;;;;-85
2022/01/10 08:59:48;;;;;;;;;;;;;;;0.77;93.03418;102057.9;;;;-84
2022/01/10 09:04:49;;;;;;;;;;;;;;;0.87;92.95703;102051.4;;;;-85
2022/01/10 09:04:59;;;;;;;14.2;4.6;;;;;;;;;;;;;-85
2022/01/10 09:09:50;;;;;;;;;;;;;;;0.96;92.88086;102055.8;;;;-84
2022/01/10 09:14:49;;;;;;;;;;;;;;;1.08;92.77539;102065.6;;;;-86
2022/01/10 09:19:48;;;;;;;;;;;;;;;1.21;92.55762;102079;;;;-85
2022/01/10 09:24:50;;;;;;;;;;;;;;;1.3;92.45605;102088.2;;;;-85
2022/01/10 09:29:56;;;;;;;;;;;;;;;1.4;92.44727;102098.7;;;;-85
2022/01/10 09:34:47;;;;;;;;;;;;;;;1.48;92.41113;102112.2;;;;-85
2022/01/10 09:34:57;;;;;;;13.1;5.8;;;;;;;;;;;;;-85
2022/01/10 09:39:51;;;;;;;;;;;;;;;1.59;92.35742;102120.9;;;;-84
2022/01/10 09:44:50;;;;;;;;;;;;;;;1.7;92.31543;102132.5;;;;-86
2022/01/10 09:49:48;;;;;;;;;;;;;;;1.8;92.26367;102151.5;;;;-86
2022/01/10 09:54:48;;;;;;;;;;;;;;;1.91;92.0498;102166.6;;;;-85
2022/01/10 09:59:50;;;;;;;;;;;;;;;2.02;91.89844;102182.4;;;;-87
2022/01/10 10:04:56;;;;;;;;;;;;;;;2.11;91.87402;102185.2;;;;-84
2022/01/10 10:05:11;;;;;;;13.6;6.8;;;;;;;;;;;;;-84
2022/01/10 10:09:53;;;;;;;;;;;;;;;2.21;91.74414;102192.3;;;;-86
2022/01/10 10:14:50;;;;;;;;;;;;;;;2.3;91.67871;102196.5;;;;-86
2022/01/10 10:19:48;;;;;;;;;;;;;;;2.39;91.48047;102201.2;;;;-87
2022/01/10 10:24:50;;;;;;;;;;;;;;;2.46;91.34375;102210.1;;;;-85
2022/01/10 10:30:08;;;;;;;;;;;;;;;2.55;91.19922;102215;;;;-87
2022/01/10 10:34:48;;;;;;;;;;;;;;;2.62;91.07422;102218.2;;;;-85
2022/01/10 10:35:03;;;;;;;16.7;7.6;;;;;;;;;;;;;-85
2022/01/10 10:39:48;;;;;;;;;;;;;;;2.71;91.08203;102230.7;;;;-85
2022/01/10 10:44:49;;;;;;;;;;;;;;;2.79;91.02344;102237.8;;;;-86
2022/01/10 10:49:51;;;;;;;;;;;;;;;2.86;90.94141;102246.4;;;;-87
2022/01/10 10:54:51;;;;;;;;;;;;;;;2.96;91.01758;102250.3;;;;-88
2022/01/10 10:59:48;;;;;;;;;;;;;;;3.06;91.02734;102257.1;;;;-86
2022/01/10 11:04:48;;;;;;;;;;;;;;;3.17;90.89844;102253.2;;;;-83
2022/01/10 11:05:02;;;;;;;18.4;8.6;;;;;;;;;;;;;-83
2022/01/10 11:09:51;;;;;;;;;;;;;;;3.28;90.88867;102261.5;;;;-83
2022/01/10 11:14:48;;;;;;;;;;;;;;;3.4;90.72949;102272.4;;;;-83
2022/01/10 11:19:47;;;;;;;;;;;;;;;3.51;90.79785;102275.9;;;;-83
2022/01/10 11:24:56;;;;;;;;;;;;;;;3.63;90.59277;102283.7;;;;-85
2022/01/10 11:29:48;;;;;;;;;;;;;;;3.74;90.36621;102287.4;;;;-82
2022/01/10 11:34:48;;;;;;;;;;;;;;;3.85;90.34766;102296.2;;;;-85
2022/01/10 11:35:07;;;;;;;20.1;9.3;;;;;;;;;;;;;-85
2022/01/10 11:39:48;;;;;;;;;;;;;;;3.96;90.32715;102303.5;;;;-88
2022/01/10 11:45:03;;;;;;;;;;;;;;;4.05;89.94434;102301.9;;;;-86
2022/01/10 11:49:50;;;;;;;;;;;;;;;4.15;89.78027;102309.8;;;;-85
2022/01/10 11:55:07;;;;;;;;;;;;;;;4.25;89.81152;102314.9;;;;-87
2022/01/10 11:59:53;;;;;;;;;;;;;;;4.35;89.84375;102319;;;;-86
2022/01/10 12:04:57;;;;;;;;;;;;;;;4.43;89.53223;102324.3;;;;-87
2022/01/10 12:05:13;;;;;;;20.6;9.6;;;;;;;;;;;;;-87
2022/01/10 12:09:50;;;;;;;;;;;;;;;4.56;89.79785;102324.6;;;;-87
2022/01/10 12:14:55;;;;;;;;;;;;;;;4.64;89.33594;102328.5;;;;-88
2022/01/10 12:19:50;;;;;;;;;;;;;;;4.72;89.09375;102339.2;;;;-86
2022/01/10 12:24:53;;;;;;;;;;;;;;;4.81;89.02344;102344.8;;;;-86
2022/01/10 12:29:48;;;;;;;;;;;;;;;4.88;88.98242;102349;;;;-87
2022/01/10 12:34:50;;;;;;;;;;;;;;;4.99;88.84375;102346.2;;;;-85
2022/01/10 12:35:04;;;;;;;23.1;10.5;;;;;;;;;;;;;-85
2022/01/10 12:39:56;;;;;;;;;;;;;;;5.13;88.67676;102353.6;;;;-86
2022/01/10 12:44:55;;;;;;;;;;;;;;;5.27;88.38672;102367.1;;;;-87
2022/01/10 12:49:48;;;;;;;;;;;;;;;5.45;88.95898;102373.7;;;;-86
2022/01/10 12:54:51;;;;;;;;;;;;;;;5.62;88.20898;102382.2;;;;-86
2022/01/10 12:59:58;;;;;;;;;;;;;;;5.78;88.00195;102384.9;;;;-87
2022/01/10 13:04:56;;;;;;;;;;;;;;;5.88;87.5293;102390.5;;;;-87
2022/01/10 13:05:08;;;;;;;24.4;11.4;;;;;;;;;;;;;-87
2022/01/10 13:09:53;;;;;;;;;;;;;;;5.91;87.82031;102395.3;;;;-86
2022/01/10 13:14:49;;;;;;;;;;;;;;;5.89;87.87305;102403.6;;;;-89
2022/01/10 13:20:05;;;;;;;;;;;;;;;5.84;87.41406;102403.8;;;;-88
2022/01/10 13:25:00;;;;;;;;;;;;;;;5.82;88.14063;102407.6;;;;-86
2022/01/10 13:29:52;;;;;;;;;;;;;;;5.78;88.74414;102413.1;;;;-88
2022/01/10 13:34:57;;;;;;;;;;;;;;;5.76;89.44824;102419.7;;;;-88
2022/01/10 13:35:18;;;;;;;26.3;11.9;;;;;;;;;;;;;-88
2022/01/10 13:40:06;;;;;;;;;;;;;;;5.78;89.34473;102421.3;;;;-88
2022/01/10 13:45:01;;;;;;;;;;;;;;;5.8;88.12598;102420.5;;;;-89
2022/01/10 13:49:48;;;;;;;;;;;;;;;5.81;88.12695;102432.1;;;;-83
2022/01/10 13:54:55;;;;;;;;;;;;;;;5.7;87.98535;102433.7;;;;-87
2022/01/10 13:59:48;;;;;;;;;;;;;;;5.58;88.37402;102440.1;;;;-86
2022/01/10 14:04:53;;;;;;;;;;;;;;;5.45;88.22754;102450.5;;;;-87
2022/01/10 14:05:14;;;;;;;22.6;11.5;;;;;;;;;;;;;-87
2022/01/10 14:10:22;;;;;;;;;;;;;;;5.36;88.85254;102459.1;;;;-87
2022/01/10 14:15:15;;;;;;;;;;;;;;;5.27;89.21777;102458.5;;;;-85
2022/01/10 14:20:32;;;;;;;;;;;;;;;5.18;89.48242;102462.3;;;;-87
2022/01/10 14:25:17;;;;;;;;;;;;;;;5.11;89.97852;102475.1;;;;-86
2022/01/10 14:34:51;;;;;;;28.9;12.9;;;;;;;;;;;;;-85
2022/01/10 14:35:14;;;;;;;;;;;;;;;4.97;90.57129;102487.8;;;;-86
2022/01/10 14:40:15;;;;;;;;;;;;;;;4.9;90.83887;102503.1;;;;-84
2022/01/10 14:45:21;;;;;;;;;;;;;;;4.82;91.12891;102507.2;;;;-85
2022/01/10 14:50:19;;;;;;;;;;;;;;;4.74;91.4375;102515.9;;;;-85
2022/01/10 14:55:16;;;;;;;;;;;;;;;4.67;91.65039;102523.7;;;;-85
2022/01/10 15:00:16;;;;;;;;;;;;;;;4.6;91.65723;102532.8;;;;-86
2022/01/10 15:04:51;;;;;;;26.6;12;;;;;;;;;;;;;-86
2022/01/10 15:05:17;;;;;;;;;;;;;;;4.52;91.72852;102537.6;;;;-85
2022/01/10 15:10:17;;;;;;;;;;;;;;;4.45;91.75684;102542.9;;;;-84
2022/01/10 15:15:17;;;;;;;;;;;;;;;4.37;91.76074;102558.1;;;;-85
2022/01/10 15:20:17;;;;;;;;;;;;;;;4.28;91.81738;102567.6;;;;-86
2022/01/10 15:25:14;;;;;;;;;;;;;;;4.19;91.85254;102573.7;;;;-85
2022/01/10 15:30:16;;;;;;;;;;;;;;;4.09;91.83105;102569.4;;;;-86
2022/01/10 15:35:00;;;;;;;22.6;11.5;;;;;;;;;;;;;-85
2022/01/10 15:35:15;;;;;;;;;;;;;;;4.01;91.81348;102578.7;;;;-85
2022/01/10 15:40:15;;;;;;;;;;;;;;;3.91;91.80371;102580.6;;;;-85
2022/01/10 15:45:17;;;;;;;;;;;;;;;3.84;91.83301;102594.8;;;;-85
2022/01/10 15:50:21;;;;;;;;;;;;;;;3.75;91.85742;102601;;;;-85
2022/01/10 15:55:39;;;;;;;;;;;;;;;3.66;91.85938;102610.6;;;;-85
2022/01/10 16:00:32;;;;;;;;;;;;;;;3.57;91.88379;102615.6;;;;-86
2022/01/10 16:04:56;;;;;;;21.5;10.3;;;;;;;;;;;;;-87
2022/01/10 16:05:15;;;;;;;;;;;;;;;3.48;91.88574;102628.9;;;;-85
2022/01/10 16:10:24;;;;;;;;;;;;;;;3.39;91.90137;102637.4;;;;-85
2022/01/10 16:15:21;;;;;;;;;;;;;;;3.32;91.94824;102645.9;;;;-85
2022/01/10 16:20:19;;;;;;;;;;;;;;;3.24;91.99609;102658.7;;;;-87
2022/01/10 16:25:16;;;;;;;;;;;;;;;3.14;92.03125;102661.5;;;;-85
2022/01/10 16:30:18;;;;;;;;;;;;;;;3.05;92.11133;102666.3;;;;-86
2022/01/10 16:34:56;;;;;;;24.9;10.4;;;;;;;;;;;;;-85
2022/01/10 16:35:18;;;;;;;;;;;;;;;2.97;92.23242;102676.2;;;;-86
2022/01/10 16:40:23;;;;;;;;;;;;;;;2.88;92.32129;102685.9;;;;-87
2022/01/10 16:45:23;;;;;;;;;;;;;;;2.78;92.34277;102694.7;;;;-84
2022/01/10 16:50:16;;;;;;;;;;;;;;;2.73;92.55859;102716.6;;;;-85
2022/01/10 16:55:19;;;;;;;;;;;;;;;2.65;92.56445;102728.2;;;;-87
2022/01/10 17:00:16;;;;;;;;;;;;;;;2.57;92.63379;102726.2;;;;-86
2022/01/10 17:04:48;;;;;;;25;11;;;;;;;;;;;;;-85
2022/01/10 17:05:15;;;;;;;;;;;;;;;2.5;92.75;102741.5;;;;-86
2022/01/10 17:10:21;;;;;;;;;;;;;;;2.43;92.78809;102749.9;;;;-85
2022/01/10 17:15:15;;;;;;;;;;;;;;;2.37;92.84961;102761.1;;;;-86
2022/01/10 17:20:17;;;;;;;;;;;;;;;2.31;92.93359;102766;;;;-86
2022/01/10 17:25:22;;;;;;;;;;;;;;;2.24;92.96289;102774.9;;;;-84
2022/01/10 17:30:16;;;;;;;;;;;;;;;2.18;92.95117;102785.7;;;;-84
2022/01/10 17:34:50;;;;;;;26.4;11;;;;;;;;;;;;;-85
2022/01/10 17:45:15;;;;;;;;;;;;;;;2;93.07422;102803;;;;-84
2022/01/10 17:50:18;;;;;;;;;;;;;;;1.95;93.08594;102817.1;;;;-85
2022/01/10 17:55:15;;;;;;;;;;;;;;;1.9;93.10449;102829.4;;;;-85
2022/01/10 18:00:18;;;;;;;;;;;;;;;1.85;93.13574;102831.2;;;;-85
2022/01/10 18:04:51;;;;;;;22.8;10.1;;;;;;;;;;;;;-85
2022/01/10 18:05:15;;;;;;;;;;;;;;;1.82;93.18359;102834.4;;;;-83
2022/01/10 18:10:16;;;;;;;;;;;;;;;1.77;93.2168;102837.5;;;;-85
2022/01/10 18:15:15;;;;;;;;;;;;;;;1.74;93.25391;102838.8;;;;-84
2022/01/10 18:20:20;;;;;;;;;;;;;;;1.71;93.28027;102845;;;;-85
2022/01/10 18:25:16;;;;;;;;;;;;;;;1.67;93.23633;102851.7;;;;-85
2022/01/10 18:30:24;;;;;;;;;;;;;;;1.64;93.2627;102862.5;;;;-84
2022/01/10 18:34:46;;;;;;;22.4;10.2;;;;;;;;;;;;;-85
2022/01/10 18:35:15;;;;;;;;;;;;;;;1.61;93.32129;102870.4;;;;-85
2022/01/10 18:40:20;;;;;;;;;;;;;;;1.57;93.35449;102873.2;;;;-85
2022/01/10 18:45:20;;;;;;;;;;;;;;;1.53;93.38281;102881.8;;;;-86
2022/01/10 18:50:19;;;;;;;;;;;;;;;1.48;93.34961;102889.6;;;;-84
2022/01/10 18:55:17;;;;;;;;;;;;;;;1.42;93.3252;102906.7;;;;-84
2022/01/10 19:00:16;;;;;;;;;;;;;;;1.38;93.33691;102907.4;;;;-85
2022/01/10 19:05:19;;;;;;;22.6;9.4;;;;;;;;;;;;;-84
2022/01/10 19:05:29;;;;;;;;;;;;;;;1.32;93.3252;102903.1;;;;-85
2022/01/10 19:10:19;;;;;;;;;;;;;;;1.28;93.29395;102904;;;;-83
2022/01/10 19:15:15;;;;;;;;;;;;;;;1.23;93.31836;102908;;;;-84
2022/01/10 19:20:16;;;;;;;;;;;;;;;1.22;93.40039;102907.4;;;;-84
2022/01/10 19:25:16;;;;;;;;;;;;;;;1.21;93.375;102911.2;;;;-83
2022/01/10 19:30:23;;;;;;;;;;;;;;;1.2;93.41797;102922;;;;-84
2022/01/10 19:34:45;;;;;;;23.9;9.5;;;;;;;;;;;;;-83
2022/01/10 19:35:16;;;;;;;;;;;;;;;1.19;93.4248;102926.3;;;;-84
2022/01/10 19:40:15;;;;;;;;;;;;;;;1.19;93.4248;102936.8;;;;-83
2022/01/10 19:45:17;;;;;;;;;;;;;;;1.2;93.41602;102935.4;;;;-84
2022/01/10 19:50:17;;;;;;;;;;;;;;;1.22;93.43066;102939.1;;;;-83
2022/01/10 19:55:15;;;;;;;;;;;;;;;1.21;93.44141;102944.5;;;;-84
2022/01/10 20:00:18;;;;;;;;;;;;;;;1.22;93.48633;102946.7;;;;-85
2022/01/10 20:04:44;;;;;;;24.8;9.2;;;;;;;;;;;;;-85
2022/01/10 20:05:17;;;;;;;;;;;;;;;1.22;93.50586;102950.3;;;;-86
2022/01/10 20:10:14;;;;;;;;;;;;;;;1.24;93.52246;102953.7;;;;-85
2022/01/10 20:15:18;;;;;;;;;;;;;;;1.25;93.54688;102956.9;;;;-84
2022/01/10 20:20:20;;;;;;;;;;;;;;;1.25;93.55762;102959.4;;;;-84
2022/01/10 20:25:21;;;;;;;;;;;;;;;1.25;93.56836;102968.8;;;;-84
2022/01/10 20:30:18;;;;;;;;;;;;;;;1.25;93.61328;102968.5;;;;-85
2022/01/10 20:34:43;;;;;;;22.5;8.7;;;;;;;;;;;;;-85
2022/01/10 20:35:15;;;;;;;;;;;;;;;1.26;93.61328;102969.9;;;;-83
2022/01/10 20:40:16;;;;;;;;;;;;;;;1.26;93.65625;102969.2;;;;-85
2022/01/10 20:45:15;;;;;;;;;;;;;;;1.27;93.70117;102974;;;;-83
2022/01/10 20:50:15;;;;;;;;;;;;;;;1.28;93.73535;102975.3;;;;-84
2022/01/10 20:55:15;;;;;;;;;;;;;;;1.26;93.75293;102976.6;;;;-84
2022/01/10 21:00:15;;;;;;;;;;;;;;;1.26;93.77539;102977.4;;;;-84
2022/01/10 21:04:42;;;;;;;24.4;9;;;;;;;;;;;;;-83
2022/01/10 21:05:17;;;;;;;;;;;;;;;1.25;93.76172;102975.7;;;;-84
2022/01/10 21:10:15;;;;;;;;;;;;;;;1.23;93.83594;102977.6;;;;-86
2022/01/10 21:15:17;;;;;;;;;;;;;;;1.24;93.85742;102977.7;;;;-84
2022/01/10 21:20:15;;;;;;;;;;;;;;;1.22;93.83203;102983.9;;;;-82
2022/01/10 21:25:16;;;;;;;;;;;;;;;1.22;93.89453;102985.9;;;;-84
2022/01/10 21:30:15;;;;;;;;;;;;;;;1.21;93.88379;102986.9;;;;-85
2022/01/10 21:34:41;;;;;;;27.5;9;;;;;;;;;;;;;-85
2022/01/10 21:35:15;;;;;;;;;;;;;;;1.2;93.89258;102990.3;;;;-84
2022/01/10 21:40:18;;;;;;;;;;;;;;;1.19;93.97461;102991.4;;;;-84
2022/01/10 21:45:16;;;;;;;;;;;;;;;1.17;93.95996;102999.7;;;;-82
2022/01/10 21:50:17;;;;;;;;;;;;;;;1.16;94.02246;103006.2;;;;-84
2022/01/10 21:55:15;;;;;;;;;;;;;;;1.15;94.04199;103010.6;;;;-84
2022/01/10 22:00:18;;;;;;;;;;;;;;;1.14;94.0293;103013;;;;-85
2022/01/10 22:04:41;;;;;;;24.9;8.8;;;;;;;;;;;;;-84
2022/01/10 22:05:18;;;;;;;;;;;;;;;1.11;93.99121;103029;;;;-85
2022/01/10 22:10:15;;;;;;;;;;;;;;;1.1;94.04297;103040;;;;-84
2022/01/10 22:15:17;;;;;;;;;;;;;;;1.07;94.01563;103045.2;;;;-84
2022/01/10 22:20:16;;;;;;;;;;;;;;;1.05;93.99023;103053;;;;-86
2022/01/10 22:25:18;;;;;;;;;;;;;;;1.03;94.01367;103055.6;;;;-85
2022/01/10 22:30:17;;;;;;;;;;;;;;;1.02;94.0127;103056.5;;;;-85
2022/01/10 22:34:39;;;;;;;20;8.2;;;;;;;;;;;;;-84
2022/01/10 22:35:15;;;;;;;;;;;;;;;0.97;93.97168;103058;;;;-84
2022/01/10 22:40:16;;;;;;;;;;;;;;;0.96;93.96777;103070.4;;;;-84
2022/01/10 22:45:14;;;;;;;;;;;;;;;0.94;93.95313;103074.1;;;;-85
2022/01/10 22:50:15;;;;;;;;;;;;;;;0.89;93.90918;103077.6;;;;-84
2022/01/10 22:55:15;;;;;;;;;;;;;;;0.86;93.90527;103071.2;;;;-84
2022/01/10 23:00:20;;;;;;;;;;;;;;;0.81;93.89258;103062.6;;;;-84
2022/01/10 23:04:38;;;;;;;18.9;7.5;;;;;;;;;;;;;-85
2022/01/10 23:05:14;;;;;;;;;;;;;;;0.79;93.92969;103068.5;;;;-84
2022/01/10 23:10:17;;;;;;;;;;;;;;;0.77;93.92773;103069.9;;;;-84
2022/01/10 23:15:16;;;;;;;;;;;;;;;0.75;93.91113;103067.6;;;;-84
2022/01/10 23:20:15;;;;;;;;;;;;;;;0.73;93.91797;103080.5;;;;-84
2022/01/10 23:25:14;;;;;;;;;;;;;;;0.7;93.92285;103081.9;;;;-85
2022/01/10 23:30:14;;;;;;;;;;;;;;;0.67;93.89355;103088.6;;;;-84
2022/01/10 23:34:38;;;;;;;16.4;6.1;;;;;;;;;;;;;-85
2022/01/10 23:35:15;;;;;;;;;;;;;;;0.64;93.93066;103074.8;;;;-83
2022/01/10 23:40:14;;;;;;;;;;;;;;;0.62;93.90234;103087.9;;;;-85
2022/01/10 23:45:14;;;;;;;;;;;;;;;0.6;93.93066;103094.1;;;;-85
2022/01/10 23:50:18;;;;;;;;;;;;;;;0.57;93.91406;103087.6;;;;-84
2022/01/10 23:55:14;;;;;;;;;;;;;;;0.56;93.94434;103076.3;;;;-83
